Time;durP1;ratioP1;P1;durP2;ratioP2;P2;SDS_P1;SDS_P2;PMS_P1;PMS_P2;Temp;Humidity;BMP_temperature;BMP_pressure;BME280_temperature;BME280_humidity;BME280_pressure;Samples;Min_cycle;Max_cycle;Signal;HPM_P1;HPM_P2
2021/12/16 00:06:59;;;;;;;0.70;0.60;;;4.50;99.90;;;;;;5098882;28;20377;-70
2021/12/16 00:34:08;;;;;;;0.40;0.30;;;4.40;99.90;;;;;;5100308;28;20387;-69
2021/12/16 00:36:37;;;;;;;0.40;0.30;;;4.60;99.90;;;;;;5102814;28;20723;-71
2021/12/16 00:39:07;;;;;;;0.40;0.30;;;4.50;99.90;;;;;;5097419;28;20881;-69
2021/12/16 00:41:34;;;;;;;0.40;0.20;;;4.40;99.90;;;;;;5099399;28;20485;-69
2021/12/16 00:44:15;;;;;;;0.80;0.80;;;4.50;99.90;;;;;;5098248;28;20386;-69
2021/12/16 00:46:58;;;;;;;0.40;0.30;;;4.50;99.90;;;;;;5100557;28;20505;-71
2021/12/16 00:49:37;;;;;;;0.40;0.20;;;4.60;99.90;;;;;;5099855;28;20378;-69
2021/12/16 00:54:58;;;;;;;0.50;0.50;;;4.60;99.90;;;;;;5100808;28;20483;-69
2021/12/16 00:57:24;;;;;;;0.40;0.20;;;4.60;99.90;;;;;;5081764;28;20401;-69
2021/12/16 00:59:51;;;;;;;0.40;0.30;;;4.50;99.90;;;;;;5101016;28;20472;-71
2021/12/16 01:35:32;;;;;;;0.40;0.20;;;4.30;99.90;;;;;;5095954;28;20366;-69
2021/12/16 01:57:16;;;;;;;0.40;0.30;;;4.40;99.90;;;;;;5100780;28;20445;-70
2021/12/16 01:59:47;;;;;;;0.40;0.20;;;4.30;99.90;;;;;;5099329;28;20458;-70
2021/12/16 02:02:36;;;;;;;0.50;0.50;;;4.30;99.90;;;;;;5101482;28;20398;-70
2021/12/16 02:10:48;;;;;;;0.40;0.30;;;4.40;99.90;;;;;;5098915;28;20742;-70
2021/12/16 02:27:08;;;;;;;0.40;0.30;;;4.40;99.90;;;;;;5100268;28;20566;-70
2021/12/16 02:27:39;;;;;;;0.40;0.40;;;4.20;99.90;;;;;;5101609;28;20383;-70
2021/12/16 02:33:12;;;;;;;0.40;0.28;;;4.20;99.90;;;;;;5096261;28;20536;-72
2021/12/16 02:35:34;;;;;;;0.40;0.20;;;4.20;99.90;;;;;;5096668;28;20407;-69
2021/12/16 02:38:04;;;;;;;1.30;0.70;;;4.10;99.90;;;;;;5096330;28;20396;-70
2021/12/16 02:40:31;;;;;;;0.40;0.20;;;4.10;99.90;;;;;;5098313;28;20408;-70
2021/12/16 02:43:09;;;;;;;0.40;0.20;;;4.20;99.90;;;;;;5095202;28;20381;-70
2021/12/16 02:48:35;;;;;;;0.40;0.20;;;4.10;99.90;;;;;;5102419;28;20425;-70
2021/12/16 02:51:08;;;;;;;0.40;0.20;;;4.10;99.90;;;;;;5104454;28;20376;-70
2021/12/16 02:53:38;;;;;;;0.40;0.20;;;4.10;99.90;;;;;;5085718;28;20496;-70
2021/12/16 02:56:04;;;;;;;0.73;0.73;;;4.20;99.90;;;;;;5099523;28;20403;-70
2021/12/16 02:58:31;;;;;;;0.40;0.20;;;4.20;99.90;;;;;;5102020;28;20381;-70
2021/12/16 03:01:07;;;;;;;0.40;0.30;;;4.10;99.90;;;;;;5102583;28;20438;-70
2021/12/16 03:03:35;;;;;;;0.40;0.20;;;4.10;99.90;;;;;;5100524;28;20436;-70
2021/12/16 03:06:02;;;;;;;0.40;0.20;;;4.00;99.90;;;;;;5101202;28;20399;-70
2021/12/16 03:08:29;;;;;;;0.40;0.20;;;4.00;99.90;;;;;;5099724;28;20395;-70
2021/12/16 03:13:34;;;;;;;0.40;0.30;;;4.10;99.90;;;;;;5098563;28;20403;-69
2021/12/16 03:29:54;;;;;;;0.40;0.23;;;4.10;99.90;;;;;;5103822;28;20409;-70
2021/12/16 03:34:59;;;;;;;0.40;0.20;;;4.10;99.90;;;;;;5101281;28;20637;-71
2021/12/16 03:37:25;;;;;;;0.40;0.20;;;4.10;99.90;;;;;;5100299;28;20366;-71
2021/12/16 03:39:56;;;;;;;0.40;0.20;;;4.20;99.90;;;;;;5109463;28;20387;-70
2021/12/16 03:42:33;;;;;;;0.40;0.28;;;4.20;99.90;;;;;;5108952;28;20437;-71
2021/12/16 03:48:56;;;;;;;0.40;0.25;;;4.10;99.90;;;;;;5017242;28;20393;-70
2021/12/16 03:51:33;;;;;;;0.40;0.20;;;4.20;99.90;;;;;;5091405;28;20381;-70
2021/12/16 03:54:07;;;;;;;0.60;0.60;;;4.10;99.90;;;;;;5091406;28;20481;-70
2021/12/16 03:56:33;;;;;;;0.40;0.30;;;4.00;99.90;;;;;;5091914;28;20688;-70
2021/12/16 03:58:59;;;;;;;0.40;0.30;;;3.90;99.90;;;;;;5090902;28;20389;-70
2021/12/16 04:01:29;;;;;;;0.40;0.20;;;4.00;99.90;;;;;;5091860;28;20866;-70
2021/12/16 04:03:55;;;;;;;0.40;0.20;;;3.90;99.90;;;;;;5090661;28;20856;-70
2021/12/16 04:06:24;;;;;;;0.40;0.30;;;4.00;99.90;;;;;;5091770;28;20382;-70
2021/12/16 04:08:52;;;;;;;0.40;0.20;;;4.10;99.90;;;;;;5089688;28;20432;-70
2021/12/16 04:11:23;;;;;;;0.40;0.30;;;4.00;99.90;;;;;;5091673;28;20378;-70
2021/12/16 04:13:56;;;;;;;0.60;0.60;;;4.00;99.90;;;;;;5090579;28;20509;-71
2021/12/16 04:16:35;;;;;;;0.40;0.30;;;4.00;99.90;;;;;;5091730;28;20444;-70
2021/12/16 04:19:09;;;;;;;0.70;0.70;;;4.10;99.90;;;;;;5090530;28;20374;-69
2021/12/16 04:21:37;;;;;;;0.40;0.22;;;4.00;99.90;;;;;;5091600;28;20869;-69
2021/12/16 04:24:03;;;;;;;0.40;0.20;;;4.20;99.90;;;;;;5090536;28;20459;-69
2021/12/16 04:26:29;;;;;;;0.40;0.20;;;4.10;99.90;;;;;;5091294;28;20427;-69
2021/12/16 04:28:55;;;;;;;0.40;0.20;;;4.00;99.90;;;;;;5090007;28;20910;-71
2021/12/16 04:31:21;;;;;;;0.40;0.20;;;3.90;99.90;;;;;;5073008;28;20884;-69
2021/12/16 04:33:47;;;;;;;0.40;0.30;;;3.90;99.90;;;;;;5103805;28;20411;-70
2021/12/16 04:36:14;;;;;;;0.45;0.43;;;3.90;99.90;;;;;;5111416;28;20387;-69
2021/12/16 04:38:41;;;;;;;0.40;0.30;;;3.90;99.90;;;;;;5093827;28;20731;-69
2021/12/16 04:41:11;;;;;;;0.40;0.30;;;3.80;99.90;;;;;;5111210;28;20376;-71
2021/12/16 04:43:40;;;;;;;0.40;0.20;;;3.90;99.90;;;;;;5112015;28;20381;-71
2021/12/16 04:46:12;;;;;;;0.40;0.20;;;3.90;99.90;;;;;;5111846;28;20460;-72
2021/12/16 04:48:40;;;;;;;0.40;0.20;;;3.80;99.90;;;;;;5112347;28;20373;-71
2021/12/16 04:51:07;;;;;;;0.40;0.30;;;3.90;99.90;;;;;;5111925;28;20397;-71
2021/12/16 04:53:33;;;;;;;0.80;0.80;;;3.80;99.90;;;;;;5111228;28;20408;-71
2021/12/16 04:56:00;;;;;;;0.40;0.20;;;3.90;99.90;;;;;;5112184;28;20427;-71
2021/12/16 04:58:26;;;;;;;0.40;0.20;;;3.90;99.90;;;;;;5111480;28;20508;-71
2021/12/16 05:00:52;;;;;;;0.60;0.50;;;3.90;99.90;;;;;;5112030;28;20377;-71
2021/12/16 05:03:19;;;;;;;0.40;0.20;;;3.90;99.90;;;;;;5111827;28;20406;-72
2021/12/16 05:05:44;;;;;;;0.40;0.20;;;3.90;99.90;;;;;;5111902;28;20380;-70
2021/12/16 05:08:10;;;;;;;0.40;0.30;;;3.80;99.90;;;;;;5112132;28;20730;-71
2021/12/16 05:10:36;;;;;;;0.40;0.20;;;3.70;99.90;;;;;;5092863;28;20388;-69
2021/12/16 05:13:04;;;;;;;0.40;0.20;;;3.70;99.90;;;;;;5111741;28;20427;-69
2021/12/16 05:15:34;;;;;;;0.40;0.28;;;3.70;99.90;;;;;;5111176;28;20453;-70
2021/12/16 05:18:06;;;;;;;0.40;0.30;;;3.70;99.90;;;;;;5112076;28;20716;-69
2021/12/16 05:20:35;;;;;;;0.40;0.20;;;3.70;99.90;;;;;;5111201;28;20389;-71
2021/12/16 05:28:18;;;;;;;0.60;0.60;;;3.60;99.90;;;;;;5111953;28;20430;-70
2021/12/16 05:30:45;;;;;;;0.40;0.20;;;3.60;99.90;;;;;;5110962;28;20400;-69
2021/12/16 05:33:12;;;;;;;0.40;0.20;;;3.60;99.90;;;;;;5104553;28;20402;-70
2021/12/16 05:35:38;;;;;;;0.40;0.20;;;3.70;99.90;;;;;;5091121;28;20751;-71
2021/12/16 05:38:05;;;;;;;0.40;0.20;;;3.70;99.90;;;;;;5090769;28;20370;-69
2021/12/16 05:40:31;;;;;;;0.40;0.20;;;3.80;99.90;;;;;;5091377;28;20378;-69
2021/12/16 05:43:01;;;;;;;0.40;0.20;;;3.60;99.90;;;;;;5090961;28;20832;-69
2021/12/16 05:45:28;;;;;;;0.40;0.20;;;3.60;99.90;;;;;;5091404;28;20389;-69
2021/12/16 05:47:57;;;;;;;0.40;0.20;;;3.50;99.90;;;;;;5090759;28;20457;-69
2021/12/16 05:50:23;;;;;;;0.40;0.20;;;3.50;99.90;;;;;;5091388;28;20374;-69
2021/12/16 05:52:49;;;;;;;0.40;0.20;;;3.40;99.90;;;;;;5094356;28;20919;-71
2021/12/16 05:55:16;;;;;;;0.40;0.40;;;3.30;99.90;;;;;;5091089;28;20446;-69
2021/12/16 05:57:43;;;;;;;0.40;0.40;;;3.20;99.90;;;;;;5073261;28;20394;-70
2021/12/16 06:00:19;;;;;;;0.40;0.30;;;3.10;99.90;;;;;;5090305;28;20385;-69
2021/12/16 06:02:45;;;;;;;0.40;0.20;;;3.10;99.90;;;;;;5090331;28;20473;-69
2021/12/16 06:05:12;;;;;;;0.40;0.20;;;3.10;99.90;;;;;;5090185;28;20791;-69
2021/12/16 06:07:38;;;;;;;0.40;0.20;;;3.20;99.90;;;;;;5091337;28;20375;-70
2021/12/16 06:10:06;;;;;;;0.40;0.20;;;3.10;99.90;;;;;;5090146;28;20405;-70
2021/12/16 06:12:31;;;;;;;0.40;0.20;;;3.10;99.90;;;;;;5091207;28;20414;-70
2021/12/16 06:28:26;;;;;;;0.40;0.20;;;3.20;99.90;;;;;;5089646;28;20409;-69
2021/12/16 06:30:52;;;;;;;0.40;0.20;;;3.10;99.90;;;;;;5090534;28;20418;-70
2021/12/16 06:33:22;;;;;;;0.40;0.20;;;3.20;99.90;;;;;;5097517;28;20434;-70
2021/12/16 06:35:52;;;;;;;0.40;0.20;;;3.30;99.90;;;;;;5111449;28;20385;-70
2021/12/16 06:38:19;;;;;;;0.40;0.20;;;3.30;99.90;;;;;;5111093;28;20380;-70
2021/12/16 06:40:45;;;;;;;0.40;0.20;;;3.30;99.90;;;;;;5093260;28;20391;-69
2021/12/16 06:43:13;;;;;;;0.60;0.60;;;3.30;99.90;;;;;;5111938;28;20419;-70
2021/12/16 06:45:43;;;;;;;0.40;0.30;;;3.30;99.90;;;;;;5110936;28;20376;-70
2021/12/16 06:48:14;;;;;;;0.40;0.20;;;3.30;99.90;;;;;;5111805;28;20384;-70
2021/12/16 06:50:57;;;;;;;0.40;0.20;;;3.30;99.90;;;;;;5110960;28;20641;-69
2021/12/16 06:53:33;;;;;;;0.40;0.30;;;3.30;99.90;;;;;;5113971;28;20404;-70
2021/12/16 06:56:07;;;;;;;0.40;0.30;;;3.20;99.90;;;;;;5097162;28;20774;-70
2021/12/16 06:58:47;;;;;;;0.40;0.20;;;3.20;99.90;;;;;;5115330;28;20390;-70
2021/12/16 07:01:37;;;;;;;0.40;0.20;;;3.10;99.90;;;;;;5115714;28;20379;-70
2021/12/16 07:04:09;;;;;;;0.40;0.20;;;3.20;99.90;;;;;;5115387;28;20929;-70
2021/12/16 07:06:36;;;;;;;0.40;0.20;;;3.30;99.90;;;;;;5114922;28;20391;-70
2021/12/16 07:09:13;;;;;;;0.40;0.20;;;3.10;99.90;;;;;;5115375;28;20388;-69
2021/12/16 07:11:52;;;;;;;0.40;0.30;;;3.10;99.90;;;;;;5114651;28;20389;-70
2021/12/16 07:14:22;;;;;;;0.70;0.50;;;3.10;99.90;;;;;;5097263;28;20742;-69
2021/12/16 07:16:57;;;;;;;0.40;0.20;;;3.10;99.90;;;;;;5114748;28;20375;-70
2021/12/16 07:19:23;;;;;;;0.40;0.20;;;3.00;99.90;;;;;;5115446;28;20383;-69
2021/12/16 07:21:48;;;;;;;0.40;0.20;;;3.20;99.90;;;;;;5114922;28;20760;-69
2021/12/16 07:24:17;;;;;;;0.40;0.20;;;3.00;99.90;;;;;;5115031;28;20932;-69
2021/12/16 07:26:44;;;;;;;0.40;0.20;;;3.00;99.90;;;;;;5114372;28;20392;-69
2021/12/16 07:29:10;;;;;;;0.40;0.20;;;3.00;99.90;;;;;;5115195;28;20486;-69
2021/12/16 07:31:38;;;;;;;0.40;0.20;;;2.90;99.90;;;;;;5115186;28;20407;-70
2021/12/16 07:34:06;;;;;;;0.40;0.40;;;3.10;99.90;;;;;;5100380;28;20439;-69
2021/12/16 07:36:34;;;;;;;0.40;0.20;;;3.00;99.90;;;;;;5094388;28;20385;-69
2021/12/16 07:39:02;;;;;;;0.40;0.30;;;3.00;99.90;;;;;;5093889;28;20859;-70
2021/12/16 07:41:32;;;;;;;0.40;0.20;;;3.00;99.90;;;;;;5094326;28;20424;-69
2021/12/16 07:44:10;;;;;;;0.40;0.20;;;2.90;99.90;;;;;;5094153;28;20465;-69
2021/12/16 07:46:58;;;;;;;0.40;0.20;;;2.90;99.90;;;;;;5094467;28;20392;-69
2021/12/16 07:49:29;;;;;;;0.40;0.20;;;3.00;99.90;;;;;;5094473;28;20857;-69
2021/12/16 07:51:56;;;;;;;0.40;0.20;;;3.00;99.90;;;;;;5094117;28;20393;-69
2021/12/16 07:54:23;;;;;;;0.70;0.70;;;3.00;99.90;;;;;;5094228;28;20394;-69
2021/12/16 07:56:52;;;;;;;0.40;0.20;;;3.10;99.90;;;;;;5094134;28;20374;-69
2021/12/16 07:59:18;;;;;;;0.40;0.30;;;3.20;99.90;;;;;;5094028;28;20411;-69
2021/12/16 08:01:45;;;;;;;0.40;0.30;;;3.20;99.90;;;;;;5093901;28;20755;-69
2021/12/16 08:04:19;;;;;;;0.40;0.20;;;3.10;99.90;;;;;;5091931;28;20465;-70
2021/12/16 08:06:49;;;;;;;0.40;0.40;;;3.20;99.90;;;;;;5093832;28;20379;-69
2021/12/16 08:09:15;;;;;;;1.10;1.00;;;3.20;99.90;;;;;;5093290;28;20371;-69
2021/12/16 08:11:42;;;;;;;0.40;0.30;;;3.30;99.90;;;;;;5093975;28;20387;-69
2021/12/16 08:14:09;;;;;;;0.40;0.20;;;3.30;99.90;;;;;;5093207;28;20453;-69
2021/12/16 08:16:35;;;;;;;0.40;0.30;;;3.50;99.90;;;;;;5093649;28;20404;-69
2021/12/16 08:19:03;;;;;;;0.40;0.20;;;3.50;99.90;;;;;;5093213;28;20493;-69
2021/12/16 08:21:29;;;;;;;0.73;0.60;;;3.60;99.90;;;;;;5093599;28;20382;-68
2021/12/16 08:23:59;;;;;;;0.40;0.20;;;3.60;99.90;;;;;;5093766;28;20728;-68
2021/12/16 08:26:26;;;;;;;0.40;0.20;;;3.70;99.90;;;;;;5093476;28;20382;-69
2021/12/16 08:28:52;;;;;;;0.40;0.20;;;3.70;99.90;;;;;;5093630;28;20397;-69
2021/12/16 08:31:19;;;;;;;0.60;0.50;;;3.80;99.90;;;;;;5092733;28;20382;-69
2021/12/16 08:33:45;;;;;;;0.40;0.20;;;3.80;99.90;;;;;;5093325;28;20409;-68
2021/12/16 08:36:11;;;;;;;0.40;0.20;;;3.80;99.90;;;;;;5092750;28;20385;-69
2021/12/16 08:38:38;;;;;;;0.40;0.20;;;3.80;99.90;;;;;;5093119;28;20431;-68
2021/12/16 08:41:09;;;;;;;0.40;0.20;;;3.80;99.90;;;;;;5093561;28;20427;-68
2021/12/16 08:43:40;;;;;;;0.40;0.20;;;3.70;99.90;;;;;;5092282;28;20382;-68
2021/12/16 08:46:07;;;;;;;0.40;0.20;;;3.80;99.90;;;;;;5093213;28;20382;-68
2021/12/16 08:48:34;;;;;;;0.40;0.20;;;3.80;99.90;;;;;;5092281;28;20389;-69
2021/12/16 08:51:00;;;;;;;0.40;0.30;;;3.90;99.90;;;;;;5093227;28;20460;-68
2021/12/16 08:53:26;;;;;;;0.40;0.20;;;3.80;99.90;;;;;;5092254;28;20409;-69
2021/12/16 08:55:54;;;;;;;0.40;0.20;;;4.00;99.90;;;;;;5092607;28;20866;-68
2021/12/16 08:58:22;;;;;;;0.40;0.20;;;3.90;99.90;;;;;;5092636;28;20421;-71
2021/12/16 09:00:54;;;;;;;0.40;0.30;;;4.00;99.90;;;;;;5092892;28;20386;-69
2021/12/16 09:03:19;;;;;;;0.40;0.20;;;3.90;99.90;;;;;;5092999;28;20387;-69
2021/12/16 09:05:46;;;;;;;0.40;0.30;;;4.00;99.90;;;;;;5092077;28;20389;-69
2021/12/16 09:08:12;;;;;;;0.50;0.50;;;4.10;99.90;;;;;;5092770;28;20386;-69
2021/12/16 09:10:38;;;;;;;0.40;0.20;;;4.10;99.90;;;;;;5092146;28;20374;-69
2021/12/16 09:13:09;;;;;;;0.40;0.30;;;4.40;99.90;;;;;;5092676;28;20408;-69
2021/12/16 09:15:38;;;;;;;0.40;0.40;;;4.40;99.90;;;;;;5091792;28;20382;-69
2021/12/16 09:18:05;;;;;;;1.30;0.60;;;4.40;99.90;;;;;;5092223;28;20919;-70
2021/12/16 09:20:31;;;;;;;0.40;0.20;;;4.40;99.90;;;;;;5091756;28;20374;-71
2021/12/16 09:22:58;;;;;;;0.40;0.20;;;4.50;99.90;;;;;;5092643;28;20419;-70
2021/12/16 09:25:24;;;;;;;0.40;0.30;;;4.60;99.90;;;;;;5092539;28;20400;-70
2021/12/16 09:27:50;;;;;;;0.40;0.20;;;4.60;99.90;;;;;;5091573;28;20402;-69
2021/12/16 09:30:22;;;;;;;0.40;0.20;;;4.60;99.90;;;;;;5092417;28;20374;-68
2021/12/16 09:32:51;;;;;;;0.40;0.20;;;4.70;99.90;;;;;;5095453;28;20858;-68
2021/12/16 09:35:17;;;;;;;0.40;0.20;;;4.60;99.90;;;;;;5112709;28;20471;-69
2021/12/16 09:37:43;;;;;;;0.40;0.30;;;4.70;99.90;;;;;;5111878;28;20376;-69
2021/12/16 09:40:13;;;;;;;0.40;0.20;;;4.90;99.90;;;;;;5112602;28;20372;-68
2021/12/16 09:42:39;;;;;;;0.40;0.20;;;4.70;99.90;;;;;;5094143;28;20866;-68
2021/12/16 09:45:08;;;;;;;0.40;0.20;;;4.60;99.90;;;;;;5112441;28;20373;-68
2021/12/16 09:47:36;;;;;;;0.40;0.30;;;4.70;99.90;;;;;;5112196;28;20433;-69
2021/12/16 09:50:05;;;;;;;0.40;0.20;;;4.90;99.90;;;;;;5111636;28;20379;-69
2021/12/16 09:52:31;;;;;;;0.40;0.20;;;5.10;99.90;;;;;;5112218;28;20559;-70
2021/12/16 09:54:57;;;;;;;1.37;0.63;;;5.00;99.90;;;;;;5111661;28;20742;-70
2021/12/16 09:57:22;;;;;;;0.40;0.20;;;5.20;99.90;;;;;;5112184;28;20386;-70
2021/12/16 09:59:50;;;;;;;0.40;0.20;;;5.30;99.90;;;;;;5111985;28;20759;-72
2021/12/16 10:02:20;;;;;;;0.40;0.20;;;5.20;99.90;;;;;;5112023;28;20421;-70
2021/12/16 10:04:47;;;;;;;0.40;0.20;;;5.30;99.90;;;;;;5112085;28;20726;-70
2021/12/16 10:07:20;;;;;;;0.40;0.20;;;5.30;99.90;;;;;;5111468;28;20384;-70
2021/12/16 10:09:48;;;;;;;0.40;0.30;;;5.20;99.90;;;;;;5112096;28;20372;-70
2021/12/16 10:12:19;;;;;;;0.40;0.20;;;5.40;99.90;;;;;;5111129;28;20408;-70
2021/12/16 10:17:26;;;;;;;0.40;0.30;;;5.10;99.90;;;;;;5111875;28;20368;-70
2021/12/16 10:19:58;;;;;;;0.40;0.20;;;5.30;99.90;;;;;;5111709;28;20752;-70
2021/12/16 10:22:38;;;;;;;0.50;0.50;;;5.60;99.90;;;;;;5111924;28;20380;-70
2021/12/16 10:25:41;;;;;;;0.40;0.20;;;5.60;99.90;;;;;;5110907;28;20432;-70
2021/12/16 10:28:14;;;;;;;0.40;0.30;;;5.70;99.90;;;;;;5110125;28;20408;-71
2021/12/16 10:31:02;;;;;;;0.40;0.30;;;5.70;99.90;;;;;;5093223;28;20830;-70
2021/12/16 10:33:36;;;;;;;0.40;0.30;;;5.90;99.90;;;;;;5101368;28;20406;-70
2021/12/16 10:36:04;;;;;;;0.40;0.20;;;5.80;99.90;;;;;;5091079;28;20386;-70
2021/12/16 10:38:36;;;;;;;0.40;0.20;;;5.90;99.90;;;;;;5090472;28;20736;-70
2021/12/16 10:41:04;;;;;;;0.40;0.20;;;5.80;99.90;;;;;;5091286;28;20378;-70
2021/12/16 10:43:38;;;;;;;0.40;0.40;;;5.90;99.90;;;;;;5090127;28;20901;-70
2021/12/16 10:46:09;;;;;;;0.90;0.90;;;5.60;99.90;;;;;;5091162;28;20374;-70
2021/12/16 10:48:50;;;;;;;0.40;0.20;;;5.70;99.90;;;;;;5090413;28;20508;-70
2021/12/16 10:51:40;;;;;;;0.40;0.20;;;5.60;99.90;;;;;;5090797;28;20374;-72
2021/12/16 10:54:12;;;;;;;0.40;0.20;;;5.90;99.90;;;;;;5090762;28;20457;-70
2021/12/16 10:56:53;;;;;;;0.40;0.30;;;5.90;99.90;;;;;;5090532;28;20374;-70
2021/12/16 10:59:35;;;;;;;0.40;0.20;;;6.00;99.90;;;;;;5090883;28;20378;-70
2021/12/16 11:02:14;;;;;;;0.40;0.30;;;6.00;99.90;;;;;;5090984;28;20394;-70
2021/12/16 11:04:52;;;;;;;0.40;0.30;;;5.80;99.90;;;;;;5090354;28;20410;-70
2021/12/16 11:07:28;;;;;;;0.40;0.20;;;5.90;99.90;;;;;;5091044;28;20382;-70
2021/12/16 11:09:56;;;;;;;0.40;0.20;;;5.90;99.90;;;;;;5090978;28;20374;-70
2021/12/16 11:12:30;;;;;;;0.40;0.20;;;5.80;99.90;;;;;;5090782;28;20402;-70
2021/12/16 11:15:07;;;;;;;0.40;0.20;;;5.80;99.90;;;;;;5090910;28;20477;-70
2021/12/16 11:17:39;;;;;;;0.40;0.20;;;5.70;99.90;;;;;;5090420;28;20398;-70
2021/12/16 11:20:14;;;;;;;0.40;0.20;;;5.80;99.90;;;;;;5090690;28;20386;-70
2021/12/16 11:22:40;;;;;;;0.40;0.30;;;5.80;99.90;;;;;;5090269;28;20401;-70
2021/12/16 11:25:19;;;;;;;0.60;0.60;;;5.80;99.90;;;;;;5090785;28;20396;-70
2021/12/16 11:27:49;;;;;;;0.40;0.20;;;6.00;99.90;;;;;;5090158;28;20380;-70
2021/12/16 11:30:20;;;;;;;0.40;0.30;;;6.00;99.90;;;;;;5090567;28;20382;-70
2021/12/16 11:32:49;;;;;;;0.40;0.20;;;5.90;99.90;;;;;;5093454;28;20457;-70
2021/12/16 11:35:38;;;;;;;0.60;0.50;;;5.80;99.90;;;;;;5111081;28;20395;-70
2021/12/16 11:38:13;;;;;;;0.40;0.20;;;5.60;99.90;;;;;;5111254;28;21082;-70
2021/12/16 11:40:58;;;;;;;0.40;0.20;;;5.90;99.90;;;;;;5114817;28;20388;-70
2021/12/16 11:43:53;;;;;;;0.40;0.30;;;5.90;99.90;;;;;;5114784;28;20430;-71
2021/12/16 11:46:24;;;;;;;0.50;0.50;;;6.20;99.90;;;;;;5112670;28;20741;-70
2021/12/16 11:48:54;;;;;;;0.40;0.30;;;6.00;99.90;;;;;;5114680;28;20785;-70
2021/12/16 11:51:24;;;;;;;0.40;0.20;;;5.90;99.90;;;;;;5114635;28;20379;-70
2021/12/16 11:53:57;;;;;;;0.40;0.40;;;6.00;99.90;;;;;;5114440;28;20443;-70
2021/12/16 11:56:37;;;;;;;0.40;0.20;;;6.00;99.90;;;;;;5114583;28;20417;-70
2021/12/16 11:59:03;;;;;;;0.40;0.20;;;6.20;99.90;;;;;;5113937;28;20889;-70
2021/12/16 12:01:28;;;;;;;0.40;0.20;;;6.00;99.90;;;;;;5114537;28;20456;-70
2021/12/16 12:04:01;;;;;;;0.40;0.30;;;6.10;99.90;;;;;;5113997;28;20467;-70
2021/12/16 12:06:29;;;;;;;0.40;0.25;;;6.00;99.90;;;;;;5113882;28;20414;-70
2021/12/16 12:08:57;;;;;;;1.60;0.90;;;6.10;99.90;;;;;;5113921;28;20471;-71
2021/12/16 12:11:27;;;;;;;0.60;0.50;;;5.90;99.90;;;;;;5095122;28;20511;-70
2021/12/16 12:14:04;;;;;;;0.40;0.30;;;6.10;99.90;;;;;;5114037;28;20456;-70
2021/12/16 12:16:40;;;;;;;0.40;0.20;;;5.90;99.90;;;;;;5113095;28;20408;-70
2021/12/16 12:19:24;;;;;;;0.40;0.20;;;6.10;99.90;;;;;;5106911;27;20395;-70
2021/12/16 12:21:56;;;;;;;0.40;0.30;;;6.10;99.90;;;;;;5118555;27;20784;-70
2021/12/16 12:24:37;;;;;;;0.50;0.50;;;5.90;99.90;;;;;;5126553;27;20398;-70
2021/12/16 12:27:23;;;;;;;0.40;0.40;;;5.90;99.90;;;;;;5131094;27;20422;-69
2021/12/16 12:29:56;;;;;;;0.40;0.20;;;5.80;99.90;;;;;;5127818;27;20407;-70
2021/12/16 12:32:30;;;;;;;0.40;0.20;;;5.80;99.90;;;;;;5133289;27;20404;-70
2021/12/16 12:35:14;;;;;;;0.40;0.20;;;5.90;99.90;;;;;;5127008;27;20387;-70
2021/12/16 12:37:44;;;;;;;0.40;0.30;;;5.80;99.90;;;;;;5133495;27;20818;-70
2021/12/16 12:40:16;;;;;;;0.40;0.30;;;5.80;99.90;;;;;;5129183;27;20387;-71
2021/12/16 12:42:44;;;;;;;0.40;0.20;;;5.80;99.90;;;;;;5131619;27;20819;-71
2021/12/16 12:45:12;;;;;;;0.40;0.20;;;5.90;99.90;;;;;;5109771;27;20426;-70
2021/12/16 12:47:42;;;;;;;0.40;0.20;;;6.10;99.90;;;;;;5132527;27;20393;-71
2021/12/16 12:50:19;;;;;;;1.65;0.80;;;6.00;99.90;;;;;;5132206;27;20382;-71
2021/12/16 12:52:49;;;;;;;0.40;0.40;;;5.90;99.90;;;;;;5132655;27;20877;-71
2021/12/16 12:55:29;;;;;;;0.40;0.20;;;5.90;99.90;;;;;;5128553;27;20399;-71
2021/12/16 12:58:13;;;;;;;0.40;0.30;;;5.90;99.90;;;;;;5120836;27;20392;-71
2021/12/16 13:00:51;;;;;;;0.40;0.20;;;6.00;99.90;;;;;;5115312;27;20856;-71
2021/12/16 13:03:22;;;;;;;0.40;0.20;;;6.00;99.90;;;;;;5132012;27;20382;-71
2021/12/16 13:05:55;;;;;;;0.40;0.30;;;6.20;99.90;;;;;;5126589;27;20394;-71
2021/12/16 13:08:30;;;;;;;0.40;0.20;;;6.20;99.90;;;;;;5121890;27;20475;-71
2021/12/16 13:10:59;;;;;;;0.40;0.20;;;6.20;99.90;;;;;;5126796;27;21039;-71
2021/12/16 13:16:14;;;;;;;0.40;0.20;;;6.20;99.90;;;;;;5131669;27;20382;-71
2021/12/16 13:27:45;;;;;;;0.40;0.20;;;6.20;99.90;;;;;;5132651;27;20374;-73
2021/12/16 13:30:21;;;;;;;0.40;0.30;;;6.20;99.90;;;;;;5105679;27;20436;-75
2021/12/16 13:35:49;;;;;;;0.40;0.20;;;6.10;99.90;;;;;;5095933;28;20533;-75
2021/12/16 13:38:20;;;;;;;1.17;0.57;;;6.10;99.90;;;;;;5095996;28;20416;-77
2021/12/16 13:40:49;;;;;;;0.40;0.30;;;6.10;99.90;;;;;;5096345;28;21282;-77
2021/12/16 13:43:19;;;;;;;0.40;0.20;;;6.10;99.90;;;;;;5096163;28;21348;-75
2021/12/16 13:46:01;;;;;;;0.40;0.20;;;6.20;99.90;;;;;;5078228;28;20484;-76
2021/12/16 13:49:00;;;;;;;0.40;0.20;;;6.20;99.90;;;;;;5078386;28;20431;-76
2021/12/16 14:03:29;;;;;;;0.40;0.30;;;6.10;99.90;;;;;;5094299;28;20384;-73
2021/12/16 14:06:51;;;;;;;0.40;0.30;;;6.10;99.90;;;;;;5077999;28;20416;-75
2021/12/16 14:08:49;;;;;;;0.40;0.20;;;6.00;99.90;;;;;;5088783;28;20401;-74
2021/12/16 14:14:21;;;;;;;0.40;0.28;;;6.20;99.90;;;;;;5091423;28;21589;-73
2021/12/16 14:24:54;;;;;;;2.40;0.80;;;6.20;99.90;;;;;;5080180;27;21066;-73
2021/12/16 14:47:11;;;;;;;0.40;0.30;;;6.10;99.90;;;;;;5086004;28;20392;-75
2021/12/16 14:49:43;;;;;;;0.40;0.20;;;6.00;99.90;;;;;;5085177;28;20380;-75
2021/12/16 14:52:28;;;;;;;0.40;0.20;;;5.90;99.90;;;;;;5084854;28;20556;-76
2021/12/16 14:55:07;;;;;;;0.40;0.20;;;6.00;99.90;;;;;;5065446;28;20424;-75
2021/12/16 14:57:37;;;;;;;0.40;0.20;;;6.20;99.90;;;;;;5066666;28;20408;-73
2021/12/16 15:00:28;;;;;;;0.70;0.70;;;6.00;99.90;;;;;;5085434;28;20907;-73
2021/12/16 15:03:03;;;;;;;0.40;0.30;;;6.00;99.90;;;;;;5084774;28;20388;-73
2021/12/16 15:05:43;;;;;;;0.40;0.30;;;6.00;99.90;;;;;;5083089;28;20467;-73
2021/12/16 15:08:17;;;;;;;0.40;0.20;;;6.00;99.90;;;;;;5085451;28;20392;-72
2021/12/16 15:10:44;;;;;;;0.40;0.30;;;6.00;99.90;;;;;;5084405;28;21291;-73
2021/12/16 15:13:19;;;;;;;0.40;0.20;;;5.90;99.90;;;;;;5085445;28;20408;-73
2021/12/16 15:16:03;;;;;;;0.40;0.20;;;5.90;99.90;;;;;;5087386;28;20453;-73
2021/12/16 15:38:33;;;;;;;1.30;0.80;;;5.80;99.90;;;;;;5064421;28;20392;-73
2021/12/16 15:43:52;;;;;;;0.40;0.20;;;5.80;99.90;;;;;;5086832;28;20375;-73
2021/12/16 15:46:18;;;;;;;0.40;0.20;;;5.70;99.90;;;;;;5088686;28;20475;-73
2021/12/16 15:48:50;;;;;;;0.40;0.20;;;5.80;99.90;;;;;;5069684;28;20389;-72
2021/12/16 15:51:16;;;;;;;0.90;0.80;;;5.60;99.90;;;;;;5087542;28;20381;-73
2021/12/16 15:53:49;;;;;;;0.40;0.30;;;5.80;99.90;;;;;;5087821;28;21641;-74
2021/12/16 15:56:32;;;;;;;0.60;0.50;;;5.70;99.90;;;;;;5088376;28;20389;-72
2021/12/16 15:59:00;;;;;;;0.40;0.40;;;5.70;99.90;;;;;;5069553;28;20399;-73
2021/12/16 16:01:29;;;;;;;0.40;0.30;;;5.80;99.90;;;;;;5087035;28;20995;-73
2021/12/16 16:03:55;;;;;;;0.40;0.30;;;5.70;99.90;;;;;;5085692;28;20384;-74
2021/12/16 16:06:22;;;;;;;0.43;0.35;;;5.70;99.90;;;;;;5087150;27;20384;-72
2021/12/16 16:08:52;;;;;;;0.40;0.30;;;5.80;99.90;;;;;;5090443;27;20419;-72
2021/12/16 16:11:23;;;;;;;0.40;0.20;;;5.90;99.90;;;;;;5067850;28;20495;-73
2021/12/16 16:13:54;;;;;;;0.40;0.20;;;5.90;99.90;;;;;;5068426;28;20504;-73
2021/12/16 16:16:28;;;;;;;1.00;0.90;;;5.80;99.90;;;;;;5086857;28;20602;-72
2021/12/16 16:18:55;;;;;;;0.40;0.20;;;5.70;99.90;;;;;;5085305;28;20793;-74
2021/12/16 16:21:49;;;;;;;0.60;0.60;;;5.90;99.90;;;;;;5083999;28;20583;-74
2021/12/16 16:24:17;;;;;;;0.40;0.20;;;5.80;99.90;;;;;;5079930;28;20484;-73
2021/12/16 16:26:44;;;;;;;0.47;0.43;;;5.70;99.90;;;;;;5086355;28;20655;-73
2021/12/16 16:29:14;;;;;;;0.40;0.30;;;5.70;99.90;;;;;;5086574;28;20939;-72
2021/12/16 16:31:42;;;;;;;2.00;0.70;;;5.80;99.90;;;;;;5085699;28;20463;-71
2021/12/16 16:34:51;;;;;;;0.40;0.30;;;5.70;99.90;;;;;;5066961;28;20536;-72
2021/12/16 16:37:28;;;;;;;0.60;0.60;;;5.80;99.90;;;;;;5075846;28;20393;-73
2021/12/16 16:39:58;;;;;;;0.60;0.60;;;5.60;99.90;;;;;;5086357;28;20400;-73
2021/12/16 16:42:33;;;;;;;0.40;0.30;;;5.70;99.90;;;;;;5066140;28;20404;-74
2021/12/16 16:44:59;;;;;;;1.15;1.05;;;5.70;99.90;;;;;;5084896;28;20479;-74
2021/12/16 16:47:33;;;;;;;0.40;0.30;;;5.80;99.90;;;;;;5086245;28;20395;-73
2021/12/16 16:49:59;;;;;;;0.40;0.20;;;5.80;99.90;;;;;;5087310;28;20420;-72
2021/12/16 16:52:35;;;;;;;0.40;0.40;;;5.80;99.90;;;;;;5083767;28;20465;-72
2021/12/16 16:55:13;;;;;;;0.40;0.20;;;5.70;99.90;;;;;;5084519;28;20416;-73
2021/12/16 16:57:46;;;;;;;0.40;0.20;;;5.60;99.90;;;;;;5084356;28;20404;-72
2021/12/16 17:00:14;;;;;;;0.40;0.20;;;5.60;99.90;;;;;;5067184;28;20385;-74
2021/12/16 17:02:42;;;;;;;0.40;0.23;;;5.70;99.90;;;;;;5084401;28;20453;-74
2021/12/16 17:05:13;;;;;;;3.35;0.65;;;5.60;99.90;;;;;;5085229;28;20419;-73
2021/12/16 17:08:03;;;;;;;0.80;0.80;;;5.60;99.90;;;;;;5086317;28;20423;-73
2021/12/16 17:10:31;;;;;;;0.50;0.50;;;5.50;99.90;;;;;;5084599;28;21104;-74
2021/12/16 17:13:02;;;;;;;0.40;0.20;;;5.60;99.90;;;;;;5084266;28;20445;-73